createdAt,value
2018-09-28T00:00:17.817Z,18.43
2018-09-28T00:02:46.131Z,18.36
2018-09-28T00:05:14.458Z,18.35
2018-09-28T00:07:42.464Z,18.28
2018-09-28T00:10:11.090Z,18.29
2018-09-28T00:12:39.411Z,18.29
2018-09-28T00:15:07.791Z,18.28
2018-09-28T00:17:35.504Z,18.32
2018-09-28T00:20:03.817Z,18.37
2018-09-28T00:22:32.137Z,18.35
2018-09-28T00:25:00.451Z,18.38
2018-09-28T00:27:29.334Z,18.43
2018-09-28T00:29:57.073Z,18.48
2018-09-28T00:32:25.962Z,18.44
2018-09-28T00:34:54.273Z,18.53
2018-09-28T00:37:22.602Z,18.49
2018-09-28T00:39:50.921Z,18.48
2018-09-28T00:42:19.039Z,18.49
2018-09-28T00:44:47.542Z,18.45
2018-09-28T00:47:15.857Z,18.47
2018-09-28T00:49:43.592Z,18.49
2018-09-28T00:52:12.478Z,18.50
2018-09-28T00:54:40.802Z,18.50
2018-09-28T00:57:09.105Z,18.53
2018-09-28T00:59:37.468Z,18.53
2018-09-28T01:02:05.862Z,18.54
2018-09-28T01:04:34.166Z,18.57
2018-09-28T01:07:02.583Z,18.53
2018-09-28T01:09:30.922Z,18.56
2018-09-28T01:11:58.657Z,18.59
2018-09-28T01:14:26.976Z,18.55
2018-09-28T01:16:55.288Z,18.58
2018-09-28T01:19:24.204Z,18.62
2018-09-28T01:21:52.520Z,18.61
2018-09-28T01:24:20.859Z,18.59
2018-09-28T01:26:48.603Z,18.58
2018-09-28T01:29:17.513Z,18.58
2018-09-28T01:31:45.816Z,18.57
2018-09-28T01:34:13.551Z,18.55
2018-09-28T01:36:41.862Z,18.51
2018-09-28T01:39:10.181Z,18.51
2018-09-28T01:41:39.083Z,18.48
2018-09-28T01:44:06.819Z,18.46
2018-09-28T01:46:35.707Z,18.40
2018-09-28T01:49:03.876Z,17.76
2018-09-28T01:51:32.338Z,16.45
2018-09-28T01:54:00.067Z,15.95
2018-09-28T01:56:28.957Z,15.41
2018-09-28T01:58:57.265Z,15.15
2018-09-28T02:01:25.588Z,14.82
2018-09-28T02:03:53.914Z,14.69
2018-09-28T02:06:22.247Z,14.62
2018-09-28T02:08:49.992Z,14.50
2018-09-28T02:11:18.885Z,14.49
2018-09-28T02:13:46.635Z,14.45
2018-09-28T02:16:15.537Z,14.43
2018-09-28T02:18:43.870Z,14.36
2018-09-28T02:21:11.629Z,14.41
2018-09-28T02:23:40.535Z,14.42
2018-09-28T02:26:08.283Z,14.46
2018-09-28T02:28:36.609Z,14.43
2018-09-28T02:31:04.932Z,14.44
2018-09-28T02:33:33.838Z,14.47
2018-09-28T02:36:01.580Z,14.49
2018-09-28T02:38:30.718Z,14.50
2018-09-28T02:40:58.807Z,14.47
2018-09-28T02:43:27.124Z,14.54
2018-09-28T02:45:55.450Z,14.52
2018-09-28T02:48:23.778Z,14.48
2018-09-28T02:50:51.529Z,14.56
2018-09-28T02:53:20.452Z,14.52
2018-09-28T02:55:48.178Z,14.51
2018-09-28T02:58:17.088Z,14.50
2018-09-28T03:00:45.417Z,14.62
2018-09-28T03:03:13.740Z,14.68
2018-09-28T03:05:41.492Z,14.77
2018-09-28T03:08:09.813Z,14.76
2018-09-28T03:10:38.124Z,14.71
2018-09-28T03:13:07.037Z,14.73
2018-09-28T03:15:35.352Z,14.76
2018-09-28T03:18:03.102Z,14.76
2018-09-28T03:20:31.426Z,14.75
2018-09-28T03:23:00.329Z,14.75
2018-09-28T03:25:28.636Z,14.73
2018-09-28T03:30:24.687Z,14.64
2018-09-28T03:32:53.591Z,14.58
2018-09-28T03:35:21.338Z,14.56
2018-09-28T03:37:49.669Z,14.54
2018-09-28T03:40:18.549Z,14.52
2018-09-28T03:42:46.297Z,14.47
2018-09-28T03:45:15.189Z,14.46
2018-09-28T03:47:43.503Z,14.38
2018-09-28T03:50:11.236Z,14.31
2018-09-28T03:52:40.129Z,14.28
2018-09-28T03:55:08.440Z,14.27
2018-09-28T03:57:36.185Z,14.22
2018-09-28T04:00:05.077Z,14.21
2018-09-28T04:02:33.390Z,14.19
2018-09-28T04:05:01.132Z,14.15
2018-09-28T04:07:30.025Z,14.13
2018-09-28T04:09:57.773Z,14.09
2018-09-28T04:12:26.709Z,14.03
2018-09-28T04:14:54.435Z,14.04
2018-09-28T04:17:22.727Z,14.04
2018-09-28T04:19:51.621Z,13.92
2018-09-28T04:22:19.361Z,13.83
2018-09-28T04:24:48.278Z,13.77
2018-09-28T04:27:16.597Z,13.68
2018-09-28T04:29:44.907Z,13.70
2018-09-28T04:32:12.637Z,13.68
2018-09-28T04:34:41.527Z,13.63
2018-09-28T04:37:09.263Z,13.66
2018-09-28T04:39:38.157Z,13.73
2018-09-28T04:42:06.466Z,13.77
2018-09-28T04:44:34.206Z,13.80
2018-09-28T04:47:03.129Z,13.81
2018-09-28T04:49:30.870Z,13.86
2018-09-28T04:51:59.191Z,13.88
2018-09-28T04:54:28.090Z,13.87
2018-09-28T04:56:55.818Z,13.84
2018-09-28T04:59:24.146Z,13.77
2018-09-28T05:01:53.035Z,13.76
2018-09-28T05:04:21.361Z,13.77
2018-09-28T05:06:49.696Z,13.80
2018-09-28T05:09:18.029Z,13.79
2018-09-28T05:11:46.354Z,13.77
2018-09-28T05:14:14.677Z,13.77
2018-09-28T05:16:43.000Z,13.73
2018-09-28T05:19:11.308Z,13.65
2018-09-28T05:21:39.629Z,13.59
2018-09-28T05:24:07.953Z,13.65
2018-09-28T05:26:35.709Z,13.63
2018-09-28T05:29:04.033Z,13.65
2018-09-28T05:31:33.010Z,13.64
2018-09-28T05:34:01.310Z,13.66
2018-09-28T05:36:29.623Z,13.68
2018-09-28T05:38:57.360Z,13.70
2018-09-28T05:41:25.684Z,13.68
2018-09-28T05:43:54.629Z,13.68
2018-09-28T05:46:22.933Z,13.70
2018-09-28T05:48:51.264Z,13.73
2018-09-28T05:51:19.023Z,13.73
2018-09-28T05:53:47.929Z,13.73
2018-09-28T05:56:15.661Z,13.70
2018-09-28T05:58:44.563Z,13.65
2018-09-28T06:01:14.286Z,13.62
2018-09-28T06:03:43.188Z,13.62
2018-09-28T06:06:11.506Z,13.63
2018-09-28T06:08:39.500Z,13.63
2018-09-28T06:11:08.171Z,13.62
2018-09-28T06:13:35.918Z,13.68
2018-09-28T06:16:04.818Z,13.70
2018-09-28T06:18:33.227Z,13.76
2018-09-28T06:21:01.495Z,13.82
2018-09-28T06:23:29.236Z,13.91
2018-09-28T06:25:57.602Z,13.99
2018-09-28T06:28:25.897Z,14.12
2018-09-28T06:30:54.811Z,14.16
2018-09-28T06:33:23.122Z,14.26
2018-09-28T06:35:51.476Z,14.41
2018-09-28T06:38:19.778Z,14.44
2018-09-28T06:40:48.146Z,14.44
2018-09-28T06:43:16.429Z,14.41
2018-09-28T06:45:44.776Z,14.51
2018-09-28T06:48:12.515Z,14.51
2018-09-28T06:50:41.414Z,14.56
2018-09-28T06:53:09.177Z,14.54
2018-09-28T06:55:38.086Z,14.58
2018-09-28T06:58:06.568Z,14.67
2018-09-28T07:00:34.855Z,14.77
2018-09-28T07:03:03.173Z,14.78
2018-09-28T07:05:30.919Z,14.86
2018-09-28T07:07:59.241Z,14.87
2018-09-28T07:10:27.553Z,14.93
2018-09-28T07:12:55.890Z,14.98
2018-09-28T07:15:24.794Z,15.03
2018-09-28T07:17:52.573Z,14.81
2018-09-28T07:20:21.451Z,14.79
2018-09-28T07:22:49.192Z,14.86
2018-09-28T07:25:18.191Z,14.83
2018-09-28T07:27:46.417Z,14.90
2018-09-28T07:30:14.773Z,15.04
2018-09-28T07:32:42.503Z,15.18
2018-09-28T07:35:10.818Z,15.23
2018-09-28T07:37:39.722Z,15.35
2018-09-28T07:40:08.046Z,15.36
2018-09-28T07:42:36.378Z,15.36
2018-09-28T07:45:04.689Z,15.39
2018-09-28T07:47:32.492Z,15.42
2018-09-28T07:50:01.399Z,15.43
2018-09-28T07:52:29.716Z,15.56
2018-09-28T07:54:57.464Z,15.71
2018-09-28T07:57:26.368Z,15.85
2018-09-28T07:59:54.679Z,15.92
2018-09-28T08:02:23.003Z,15.89
2018-09-28T08:04:51.338Z,15.70
2018-09-28T08:07:19.638Z,15.68
2018-09-28T08:09:47.986Z,15.64
2018-09-28T08:12:16.310Z,15.52
2018-09-28T08:14:44.629Z,15.51
2018-09-28T08:17:12.945Z,15.55
2018-09-28T08:19:41.275Z,15.65
2018-09-28T08:22:09.020Z,15.78
2018-09-28T08:24:37.967Z,15.96
2018-09-28T08:27:05.666Z,16.05
2018-09-28T08:29:34.564Z,16.10
2018-09-28T08:32:02.911Z,16.07
2018-09-28T08:34:31.241Z,15.96
2018-09-28T08:36:58.985Z,15.75
2018-09-28T08:39:27.893Z,15.72
2018-09-28T08:41:55.677Z,15.86
2018-09-28T08:44:24.534Z,15.95
2018-09-28T08:46:52.849Z,15.96
2018-09-28T08:49:21.257Z,15.89
2018-09-28T08:51:49.767Z,15.81
2018-09-28T08:54:18.357Z,15.70
2018-09-28T08:56:46.746Z,15.71
2018-09-28T08:59:15.075Z,15.73
2018-09-28T09:01:43.406Z,15.53
2018-09-28T09:04:11.719Z,15.44
2018-09-28T09:06:40.043Z,15.38
2018-09-28T09:09:08.367Z,15.15
2018-09-28T09:11:36.105Z,14.94
2018-09-28T09:14:04.415Z,14.85
2018-09-28T09:16:32.737Z,14.80
2018-09-28T09:19:01.652Z,14.79
2018-09-28T09:21:29.980Z,14.90
2018-09-28T09:23:57.777Z,15.04
2018-09-28T09:26:26.637Z,15.10
2018-09-28T09:28:54.941Z,15.12
2018-09-28T09:31:22.683Z,15.22
2018-09-28T09:33:51.596Z,15.37
2018-09-28T09:36:19.917Z,15.32
2018-09-28T09:38:47.676Z,15.27
2018-09-28T09:41:16.795Z,15.28
2018-09-28T09:43:44.314Z,15.31
2018-09-28T09:46:13.216Z,15.43
2018-09-28T09:48:40.956Z,15.64
2018-09-28T09:51:09.274Z,15.73
2018-09-28T09:53:38.652Z,15.73
2018-09-28T09:56:06.980Z,15.91
2018-09-28T09:58:35.295Z,16.05
2018-09-28T10:01:03.619Z,16.17
2018-09-28T10:03:31.953Z,16.26
2018-09-28T10:05:59.723Z,16.18
2018-09-28T10:08:28.625Z,16.13
2018-09-28T10:10:56.373Z,16.11
2018-09-28T10:13:24.748Z,16.19
2018-09-28T10:15:53.651Z,16.19
2018-09-28T10:18:21.965Z,16.18
2018-09-28T10:20:49.702Z,16.11
2018-09-28T10:23:18.028Z,16.10
2018-09-28T10:25:47.083Z,16.12
2018-09-28T10:28:15.446Z,16.15
2018-09-28T10:30:43.129Z,16.21
2018-09-28T10:33:12.032Z,16.29
2018-09-28T10:35:40.348Z,16.35
2018-09-28T10:38:08.708Z,16.33
2018-09-28T10:40:37.147Z,16.41
2018-09-28T10:43:04.802Z,16.29
2018-09-28T10:45:33.137Z,16.20
2018-09-28T10:48:02.047Z,16.18
2018-09-28T10:50:29.890Z,16.22
2018-09-28T10:52:58.141Z,16.35
2018-09-28T10:55:26.994Z,16.53
2018-09-28T10:57:54.736Z,16.73
2018-09-28T11:00:23.677Z,16.65
2018-09-28T11:02:51.960Z,16.44
2018-09-28T11:05:20.280Z,16.36
2018-09-28T11:07:48.615Z,16.33
2018-09-28T11:10:16.373Z,16.35
2018-09-28T11:12:45.250Z,16.37
2018-09-28T11:15:13.016Z,16.34
2018-09-28T11:17:41.347Z,16.29
2018-09-28T11:20:10.240Z,16.34
2018-09-28T11:22:38.553Z,16.36
2018-09-28T11:25:06.304Z,16.42
2018-09-28T11:27:34.681Z,16.43
2018-09-28T11:30:03.512Z,16.50
2018-09-28T11:32:31.825Z,16.59
2018-09-28T11:35:00.161Z,16.84
2018-09-28T11:37:28.547Z,17.01
2018-09-28T11:39:56.860Z,17.19
2018-09-28T11:42:24.595Z,17.14
2018-09-28T11:44:53.720Z,16.99
2018-09-28T11:47:21.237Z,16.94
2018-09-28T11:49:50.148Z,16.84
2018-09-28T11:52:17.889Z,16.86
2018-09-28T11:54:46.789Z,16.77
2018-09-28T11:57:15.122Z,16.88
2018-09-28T11:59:42.846Z,16.93
2018-09-28T12:02:11.755Z,16.66
2018-09-28T12:04:40.074Z,16.56
2018-09-28T12:07:08.480Z,16.64
2018-09-28T12:09:36.755Z,16.77
2018-09-28T12:12:05.062Z,16.80
2018-09-28T12:14:32.899Z,16.94
2018-09-28T12:17:01.227Z,17.10
2018-09-28T12:19:29.551Z,17.32
2018-09-28T12:21:58.462Z,17.47
2018-09-28T12:24:26.210Z,17.55
2018-09-28T12:26:54.518Z,17.34
2018-09-28T12:29:23.445Z,17.39
2018-09-28T12:31:51.775Z,17.54
2018-09-28T12:34:20.103Z,17.65
2018-09-28T12:36:47.848Z,17.70
2018-09-28T12:39:16.310Z,17.92
2018-09-28T12:41:45.087Z,18.11
2018-09-28T12:44:12.878Z,17.97
2018-09-28T12:46:41.176Z,17.67
2018-09-28T12:49:10.076Z,17.43
2018-09-28T12:51:38.434Z,17.26
2018-09-28T12:54:06.765Z,17.24
2018-09-28T12:56:34.536Z,17.02
2018-09-28T12:59:02.841Z,17.16
2018-09-28T13:01:31.161Z,17.00
2018-09-28T13:04:00.076Z,17.05
2018-09-28T13:06:28.467Z,17.41
2018-09-28T13:08:56.167Z,17.93
2018-09-28T13:11:25.056Z,18.76
2018-09-28T13:13:53.375Z,19.58
2018-09-28T13:16:21.933Z,19.76
2018-09-28T13:18:50.372Z,19.86
2018-09-28T13:21:18.009Z,20.14
2018-09-28T13:23:46.910Z,20.36
2018-09-28T13:26:18.615Z,20.18
2018-09-28T13:28:46.927Z,19.79
2018-09-28T13:31:15.465Z,18.90
2018-09-28T13:33:43.549Z,18.68
2018-09-28T13:36:11.319Z,19.38
2018-09-28T13:38:40.295Z,19.71
2018-09-28T13:41:07.953Z,20.63
2018-09-28T13:43:36.269Z,20.33
2018-09-28T13:46:05.202Z,21.08
2018-09-28T13:48:32.908Z,21.69
2018-09-28T13:51:01.812Z,22.32
2018-09-28T13:53:30.141Z,20.86
2018-09-28T13:55:58.455Z,19.74
2018-09-28T13:58:26.826Z,18.78
2018-09-28T14:00:54.508Z,18.14
2018-09-28T14:03:22.818Z,17.63
2018-09-28T14:05:51.725Z,17.77
2018-09-28T14:08:20.082Z,17.48
2018-09-28T14:10:48.432Z,17.65
2018-09-28T14:13:16.109Z,17.70
2018-09-28T14:15:45.013Z,17.90
2018-09-28T14:18:13.333Z,17.77
2018-09-28T14:20:41.677Z,17.66
2018-09-28T14:23:09.974Z,17.16
2018-09-28T14:25:38.285Z,16.84
2018-09-28T14:28:06.786Z,16.74
2018-09-28T14:30:34.919Z,17.04
2018-09-28T14:33:02.661Z,16.95
2018-09-28T14:35:30.993Z,17.61
2018-09-28T14:37:59.945Z,19.83
2018-09-28T14:40:28.342Z,21.44
2018-09-28T14:42:56.658Z,23.72
2018-09-28T14:45:24.997Z,25.37
2018-09-28T14:47:53.320Z,26.08
2018-09-28T14:50:21.695Z,26.14
2018-09-28T14:52:50.024Z,25.75
2018-09-28T14:55:18.288Z,23.31
2018-09-28T14:57:46.622Z,21.46
2018-09-28T15:00:14.424Z,20.21
2018-09-28T15:02:43.297Z,19.31
2018-09-28T15:05:11.607Z,18.60
2018-09-28T15:07:39.402Z,18.15
2018-09-28T15:10:08.280Z,17.66
2018-09-28T15:12:36.624Z,17.36
2018-09-28T15:15:04.898Z,17.11
2018-09-28T15:17:32.641Z,16.92
2018-09-28T15:20:00.959Z,16.70
2018-09-28T15:22:29.857Z,16.53
2018-09-28T15:24:58.199Z,16.39
2018-09-28T15:27:26.551Z,16.28
2018-09-28T15:29:54.882Z,16.08
2018-09-28T15:32:22.650Z,15.82
2018-09-28T15:34:51.553Z,15.64
2018-09-28T15:37:19.885Z,15.46
2018-09-28T15:39:47.632Z,15.27
2018-09-28T15:42:16.529Z,15.15
2018-09-28T15:44:44.893Z,14.91
2018-09-28T15:47:13.228Z,14.76
2018-09-28T15:49:41.550Z,14.64
2018-09-28T15:52:09.294Z,14.59
2018-09-28T15:54:37.635Z,14.46
2018-09-28T15:57:06.542Z,14.38
2018-09-28T15:59:34.874Z,14.31
2018-09-28T16:02:03.297Z,14.15
2018-09-28T16:04:31.388Z,14.10
2018-09-28T16:06:59.838Z,14.11
2018-09-28T16:09:28.155Z,14.13
2018-09-28T16:11:56.530Z,14.11
2018-09-28T16:14:24.806Z,14.07
2018-09-28T16:16:53.740Z,14.00
2018-09-28T16:19:21.461Z,13.92
2018-09-28T16:21:49.818Z,13.85
2018-09-28T16:24:18.137Z,13.76
2018-09-28T16:26:45.887Z,13.67
2018-09-28T16:29:14.806Z,13.50
2018-09-28T16:31:43.143Z,13.38
2018-09-28T16:34:10.950Z,13.27
2018-09-28T16:36:39.262Z,13.19
2018-09-28T16:39:07.561Z,13.13
2018-09-28T16:41:36.475Z,13.05
2018-09-28T16:44:04.809Z,12.95
2018-09-28T16:46:32.598Z,12.87
2018-09-28T16:49:01.862Z,12.82
2018-09-28T16:51:29.638Z,12.81
2018-09-28T16:53:58.553Z,12.81
2018-09-28T16:56:26.915Z,12.75
2018-09-28T16:58:55.258Z,12.73
2018-09-28T17:01:23.017Z,12.64
2018-09-28T17:03:52.219Z,12.39
2018-09-28T17:06:20.552Z,12.29
2018-09-28T17:08:48.372Z,12.15
2018-09-28T17:11:17.238Z,12.02
2018-09-28T17:13:45.798Z,11.90
2018-09-28T17:16:13.901Z,11.83
2018-09-28T17:18:42.234Z,11.81
2018-09-28T17:21:10.963Z,11.81
2018-09-28T17:23:39.301Z,11.73
2018-09-28T17:26:07.636Z,11.57
2018-09-28T17:28:36.036Z,11.40
2018-09-28T17:31:04.319Z,11.35
2018-09-28T17:33:32.661Z,11.27
2018-09-28T17:36:01.515Z,11.24
2018-09-28T17:38:29.561Z,11.19
2018-09-28T17:40:57.904Z,11.13
2018-09-28T17:43:25.661Z,11.03
2018-09-28T17:45:54.602Z,10.99
2018-09-28T17:48:23.964Z,11.02
2018-09-28T17:50:51.490Z,11.10
2018-09-28T17:53:20.435Z,11.18
2018-09-28T17:55:48.782Z,11.25
2018-09-28T17:58:16.510Z,11.30
2018-09-28T18:00:45.423Z,11.32
2018-09-28T18:03:13.775Z,11.36
2018-09-28T18:05:42.127Z,11.41
2018-09-28T18:08:09.926Z,11.36
2018-09-28T18:10:38.258Z,11.18
2018-09-28T18:13:06.607Z,11.07
2018-09-28T18:15:34.944Z,11.06
2018-09-28T18:18:03.891Z,11.11
2018-09-28T18:20:32.248Z,11.10
2018-09-28T18:23:00.591Z,11.08
2018-09-28T18:25:28.374Z,11.05
2018-09-28T18:27:57.286Z,11.08
2018-09-28T18:30:25.643Z,11.10
2018-09-28T18:32:53.973Z,11.05
2018-09-28T18:35:21.728Z,11.05
2018-09-28T18:37:50.057Z,10.98
2018-09-28T18:40:18.974Z,10.98
2018-09-28T18:42:47.304Z,10.93
2018-09-28T18:45:15.096Z,10.82
2018-09-28T18:47:44.035Z,10.73
2018-09-28T18:50:12.557Z,10.59
2018-09-28T18:52:40.626Z,10.41
2018-09-28T18:55:09.536Z,10.26
2018-09-28T18:57:37.515Z,10.08
2018-09-28T19:00:06.214Z,10.05
2018-09-28T19:02:33.985Z,9.99
2018-09-28T19:05:02.325Z,10.03
2018-09-28T19:07:30.659Z,10.12
2018-09-28T19:09:58.994Z,10.19
2018-09-28T19:12:27.963Z,10.21
2018-09-28T19:14:56.275Z,10.20
2018-09-28T19:17:24.607Z,10.21
2018-09-28T19:19:52.979Z,10.23
2018-09-28T19:22:21.326Z,10.25
2018-09-28T19:24:49.694Z,10.21
2018-09-28T19:27:18.033Z,10.21
2018-09-28T19:29:46.372Z,10.21
2018-09-28T19:32:14.123Z,10.19
2018-09-28T19:34:43.047Z,10.14
2018-09-28T19:37:10.861Z,10.05
2018-09-28T19:39:39.737Z,9.99
2018-09-28T19:42:08.289Z,9.97
2018-09-28T19:44:36.620Z,9.95
2018-09-28T19:47:04.731Z,9.97
2018-09-28T19:49:33.278Z,9.96
2018-09-28T19:52:01.046Z,9.91
2018-09-28T19:54:29.968Z,9.87
2018-09-28T19:56:58.318Z,9.87
2018-09-28T19:59:26.631Z,9.87
2018-09-28T20:01:54.959Z,9.88
2018-09-28T20:04:23.325Z,9.88
2018-09-28T20:06:51.086Z,9.87
2018-09-28T20:09:19.995Z,9.80
2018-09-28T20:11:48.329Z,9.75
2018-09-28T20:14:16.827Z,9.70
2018-09-28T20:16:45.173Z,9.71
2018-09-28T20:19:13.515Z,9.66
2018-09-28T20:21:41.958Z,9.60
2018-09-28T20:24:10.294Z,9.49
2018-09-28T20:26:38.593Z,9.21
2018-09-28T20:29:06.968Z,9.00
2018-09-28T20:31:35.315Z,8.91
2018-09-28T20:34:03.068Z,8.86
2018-09-28T20:36:31.390Z,8.85
2018-09-28T20:39:00.347Z,8.86
2018-09-28T20:41:28.675Z,8.90
2018-09-28T20:43:57.003Z,9.01
2018-09-28T20:46:25.347Z,9.11
2018-09-28T20:48:53.695Z,9.23
2018-09-28T20:51:22.002Z,9.36
2018-09-28T20:53:50.396Z,9.42
2018-09-28T20:56:18.751Z,9.45
2018-09-28T20:58:47.089Z,9.42
2018-09-28T21:01:14.825Z,9.39
2018-09-28T21:03:43.146Z,9.32
2018-09-28T21:06:12.058Z,9.24
2018-09-28T21:08:39.789Z,9.22
2018-09-28T21:11:08.109Z,9.22
2018-09-28T21:13:37.069Z,9.16
2018-09-28T21:16:05.338Z,9.10
2018-09-28T21:18:33.085Z,9.09
2018-09-28T21:21:01.415Z,9.07
2018-09-28T21:23:29.745Z,9.08
2018-09-28T21:25:58.653Z,9.07
2018-09-28T21:28:26.983Z,9.03
2018-09-28T21:30:54.738Z,9.03
2018-09-28T21:33:23.072Z,9.02
2018-09-28T21:35:51.392Z,9.05
2018-09-28T21:38:20.291Z,9.08
2018-09-28T21:40:48.611Z,9.09
2018-09-28T21:43:16.949Z,9.12
2018-09-28T21:45:45.264Z,9.18
2018-09-28T21:48:13.004Z,9.13
2018-09-28T21:50:41.922Z,9.10
2018-09-28T21:53:10.267Z,9.10
2018-09-28T21:55:38.592Z,8.90
2018-09-28T21:58:06.938Z,8.86
2018-09-28T22:00:35.262Z,8.91
2018-09-28T22:03:03.575Z,8.91
2018-09-28T22:05:31.894Z,8.86
2018-09-28T22:08:00.217Z,8.87
2018-09-28T22:10:28.544Z,8.80
2018-09-28T22:12:56.284Z,8.69
2018-09-28T22:15:25.199Z,8.67
2018-09-28T22:17:53.518Z,8.64
2018-09-28T22:20:21.685Z,8.63
2018-09-28T22:22:49.587Z,8.67
2018-09-28T22:25:18.488Z,8.68
2018-09-28T22:27:46.808Z,8.67
2018-09-28T22:30:15.126Z,8.60
2018-09-28T22:32:43.450Z,8.56
2018-09-28T22:35:11.777Z,8.54
2018-09-28T22:37:40.101Z,8.53
2018-09-28T22:40:08.424Z,8.51
2018-09-28T22:42:36.171Z,8.50
2018-09-28T22:45:05.076Z,8.48
2018-09-28T22:47:32.823Z,8.46
2018-09-28T22:50:01.723Z,8.44
2018-09-28T22:52:30.037Z,8.43
2018-09-28T22:54:58.364Z,8.42
2018-09-28T22:57:26.695Z,8.39
2018-09-28T22:59:55.016Z,8.39
2018-09-28T23:02:23.362Z,8.36
2018-09-28T23:04:51.692Z,8.26
2018-09-28T23:07:20.011Z,8.05
2018-09-28T23:09:48.591Z,7.95
2018-09-28T23:12:16.908Z,7.96
2018-09-28T23:14:45.245Z,8.03
2018-09-28T23:17:12.988Z,8.01
2018-09-28T23:19:41.316Z,8.03
2018-09-28T23:22:09.645Z,7.96
2018-09-28T23:24:37.960Z,7.94
2018-09-28T23:27:06.875Z,7.91
2018-09-28T23:29:35.192Z,7.87
2018-09-28T23:32:02.926Z,7.94
2018-09-28T23:34:31.822Z,7.95
2018-09-28T23:37:00.140Z,7.98
2018-09-28T23:39:28.452Z,7.84
2018-09-28T23:41:56.181Z,7.75
2018-09-28T23:44:24.516Z,7.70
2018-09-28T23:46:53.419Z,7.68
2018-09-28T23:49:21.197Z,7.70
2018-09-28T23:51:49.515Z,7.71
2018-09-28T23:54:17.838Z,7.61
2018-09-28T23:56:46.735Z,7.61
2018-09-28T23:59:14.694Z,7.63
